Time,TemperatureF,DewpointF,PressureIn,WindDirection,WindDirectionDegrees,WindSpeedMPH,WindSpeedGustMPH,Humidity,HourlyPrecipIn,Conditions,Clouds,dailyrainin,SoftwareType,DateUTC
2013-10-08 08:12:00,49.0,44.0,30.07,SSW,195,0.0,0.0,83,0.00,,,0.00,,2013-10-08 13:12:00,
2013-10-08 08:22:00,49.0,44.0,30.07,SSW,195,0.0,0.0,84,0.00,,,0.00,,2013-10-08 13:22:00,
2013-10-08 08:42:00,49.0,44.0,30.07,SSW,195,0.0,0.0,83,0.00,,,0.00,,2013-10-08 13:42:00,
2013-10-08 08:52:00,51.0,45.0,30.08,SSW,195,0.0,0.0,80,0.00,,,0.00,,2013-10-08 13:52:00,
2013-10-08 09:22:00,54.0,46.0,30.08,SSW,195,5.0,5.0,73,0.00,,,0.00,,2013-10-08 14:22:00,
2013-10-08 09:42:00,56.0,46.0,30.08,SSW,195,7.0,7.0,70,0.00,,,0.00,,2013-10-08 14:42:00,
2013-10-08 09:52:00,58.0,47.0,30.08,South,178,5.0,5.0,67,0.00,,,0.00,,2013-10-08 14:52:00,
2013-10-08 10:11:00,60.0,47.0,30.07,SSW,200,9.0,9.0,63,0.00,,,0.00,,2013-10-08 15:11:00,
2013-10-08 10:22:00,61.0,47.0,30.07,South,176,9.0,9.0,61,0.00,,,0.00,,2013-10-08 15:22:00,
2013-10-08 10:44:00,62.0,48.0,30.06,South,171,6.0,6.0,60,0.00,,,0.00,,2013-10-08 15:44:00,
2013-10-08 10:53:00,64.0,48.0,30.06,South,190,6.0,6.0,57,0.00,,,0.00,,2013-10-08 15:53:00,
2013-10-08 11:13:00,65.0,48.0,30.06,SW,220,10.0,10.0,54,0.00,,,0.00,,2013-10-08 16:13:00,
2013-10-08 11:23:00,66.0,49.0,30.06,SSE,156,11.0,11.0,54,0.00,,,0.00,,2013-10-08 16:23:00,
2013-10-08 11:42:00,67.0,48.0,30.06,South,183,10.0,10.0,51,0.00,,,0.00,,2013-10-08 16:42:00,
2013-10-08 11:53:00,68.0,46.0,30.05,South,173,9.0,9.0,46,0.00,,,0.00,,2013-10-08 16:53:00,
2013-10-08 12:12:00,69.0,47.0,30.05,SSE,157,16.0,16.0,45,0.00,,,0.00,,2013-10-08 17:12:00,
2013-10-08 12:23:00,69.0,47.0,30.05,SSW,196,12.0,12.0,45,0.00,,,0.00,,2013-10-08 17:23:00,
2013-10-08 12:42:00,70.0,46.0,30.05,SSW,197,15.0,15.0,43,0.00,,,0.00,,2013-10-08 17:42:00,
2013-10-08 12:52:00,71.0,49.0,30.04,SW,229,9.0,9.0,45,0.00,,,0.00,,2013-10-08 17:52:00,
2013-10-08 13:11:00,72.0,48.0,30.03,South,178,15.0,15.0,42,0.00,,,0.00,,2013-10-08 18:11:00,
2013-10-08 13:22:00,72.0,48.0,30.03,SSW,194,12.0,12.0,42,0.00,,,0.00,,2013-10-08 18:22:00,
2013-10-08 13:42:00,72.0,46.0,30.03,SSE,165,16.0,16.0,39,0.00,,,0.00,,2013-10-08 18:42:00,
2013-10-08 13:52:00,73.0,46.0,30.02,SSW,203,18.0,18.0,38,0.00,,,0.00,,2013-10-08 18:52:00,
2013-10-08 14:11:00,73.0,45.0,30.02,SSW,199,12.0,12.0,37,0.00,,,0.00,,2013-10-08 19:11:00,
2013-10-08 14:21:00,74.0,48.0,30.01,South,169,7.0,7.0,40,0.00,,,0.00,,2013-10-08 19:21:00,
2013-10-08 14:42:00,74.0,44.0,30.00,South,173,12.0,12.0,34,0.00,,,0.00,,2013-10-08 19:42:00,
2013-10-08 14:52:00,74.0,45.0,29.99,South,169,13.0,13.0,36,0.00,,,0.00,,2013-10-08 19:52:00,
2013-10-08 15:12:00,74.0,44.0,29.98,South,187,8.0,8.0,34,0.00,,,0.00,,2013-10-08 20:12:00,
2013-10-08 15:22:00,75.0,44.0,29.98,SE,146,6.0,6.0,33,0.00,,,0.00,,2013-10-08 20:22:00,
2013-10-08 15:42:00,75.0,42.0,29.98,SSW,212,13.0,13.0,31,0.00,,,0.00,,2013-10-08 20:42:00,
2013-10-08 15:52:00,75.0,44.0,29.98,SSW,205,10.0,10.0,33,0.00,,,0.00,,2013-10-08 20:52:00,
2013-10-08 16:12:00,75.0,41.0,29.98,SSE,167,13.0,13.0,30,0.00,,,0.00,,2013-10-08 21:12:00,
2013-10-08 16:22:00,75.0,42.0,29.97,South,173,9.0,9.0,31,0.00,,,0.00,,2013-10-08 21:22:00,
2013-10-08 16:44:00,75.0,46.0,29.97,SSE,167,11.0,11.0,36,0.00,,,0.00,,2013-10-08 21:44:00,
2013-10-08 16:54:00,75.0,44.0,29.97,South,178,15.0,15.0,33,0.00,,,0.00,,2013-10-08 21:54:00,
2013-10-08 17:13:00,75.0,44.0,29.97,SSW,199,5.0,5.0,33,0.00,,,0.00,,2013-10-08 22:13:00,
2013-10-08 17:24:00,74.0,44.0,29.97,SSW,192,9.0,9.0,34,0.00,,,0.00,,2013-10-08 22:24:00,
2013-10-08 17:46:00,74.0,44.0,29.96,SSE,161,14.0,14.0,34,0.00,,,0.00,,2013-10-08 22:46:00,
2013-10-08 17:55:00,74.0,45.0,29.96,SSW,195,5.0,5.0,36,0.00,,,0.00,,2013-10-08 22:55:00,
2013-10-08 18:12:00,73.0,47.0,29.96,South,169,2.0,2.0,39,0.00,,,0.00,,2013-10-08 23:12:00,
2013-10-08 18:23:00,73.0,46.0,29.96,South,186,3.0,3.0,38,0.00,,,0.00,,2013-10-08 23:23:00,
2013-10-08 18:52:00,71.0,46.0,29.96,SSE,161,0.0,0.0,41,0.00,,,0.00,,2013-10-08 23:52:00,
2013-10-08 19:12:00,70.0,47.0,29.96,South,171,0.0,0.0,44,0.00,,,0.00,,2013-10-09 00:12:00,
2013-10-08 19:22:00,68.0,46.0,29.96,South,171,0.0,0.0,46,0.00,,,0.00,,2013-10-09 00:22:00,
2013-10-08 19:43:00,67.0,47.0,29.97,South,171,0.0,0.0,49,0.00,,,0.00,,2013-10-09 00:43:00,
2013-10-08 19:52:00,66.0,48.0,29.98,South,171,0.0,0.0,52,0.00,,,0.00,,2013-10-09 00:52:00,
2013-10-08 20:12:00,65.0,49.0,29.98,South,171,0.0,0.0,56,0.00,,,0.00,,2013-10-09 01:12:00,
2013-10-08 20:22:00,63.0,48.0,29.98,South,171,0.0,0.0,58,0.00,,,0.00,,2013-10-09 01:22:00,
2013-10-08 20:43:00,62.0,48.0,29.99,South,171,0.0,0.0,60,0.00,,,0.00,,2013-10-09 01:43:00,
2013-10-08 20:52:00,61.0,48.0,29.98,South,171,0.0,0.0,63,0.00,,,0.00,,2013-10-09 01:52:00,
2013-10-08 21:23:00,60.0,48.0,29.99,South,171,0.0,0.0,65,0.00,,,0.00,,2013-10-09 02:23:00,
2013-10-08 21:42:00,60.0,48.0,29.99,South,171,0.0,0.0,64,0.00,,,0.00,,2013-10-09 02:42:00,
2013-10-08 21:52:00,60.0,47.0,29.98,South,171,0.0,0.0,63,0.00,,,0.00,,2013-10-09 02:52:00,
2013-10-08 22:11:00,61.0,47.0,29.98,SSE,163,4.0,4.0,61,0.00,,,0.00,,2013-10-09 03:11:00,
2013-10-08 22:23:00,62.0,48.0,29.98,SSE,165,4.0,4.0,61,0.00,,,0.00,,2013-10-09 03:23:00,
2013-10-08 22:44:00,62.0,49.0,29.98,South,170,0.0,0.0,62,0.00,,,0.00,,2013-10-09 03:44:00,
2013-10-08 22:54:00,61.0,49.0,29.98,South,171,0.0,0.0,64,0.00,,,0.00,,2013-10-09 03:54:00,
2013-10-08 23:14:00,61.0,49.0,29.98,South,171,0.0,0.0,65,0.00,,,0.00,,2013-10-09 04:14:00,
2013-10-08 23:24:00,61.0,50.0,29.97,South,171,4.0,4.0,66,0.00,,,0.00,,2013-10-09 04:24:00,
2013-10-08 23:44:00,61.0,49.0,29.98,SSE,162,3.0,3.0,65,0.00,,,0.00,,2013-10-09 04:44:00,
2013-10-08 23:54:00,61.0,50.0,30.01,SSE,157,2.0,2.0,66,0.00,,,0.00,,2013-10-09 04:54:00,